sensor_id;sensor_type;location;lat;lon;timestamp;P1;durP1;ratioP1;P2;durP2;ratioP2
55218;SDS011;41088;44.012;20.902;2022-11-20T21:42:22;16.48;;;1.50;;
55218;SDS011;41088;44.012;20.902;2022-11-20T21:50:43;10.95;;;1.75;;
55218;SDS011;41088;44.012;20.902;2022-11-20T21:53:09;1.90;;;1.30;;
55218;SDS011;41088;44.012;20.902;2022-11-20T21:55:35;2.75;;;1.60;;
55218;SDS011;41088;44.012;20.902;2022-11-20T21:58:01;2.70;;;1.50;;
55218;SDS011;41088;44.012;20.902;2022-11-20T22:00:27;3.78;;;1.92;;
55218;SDS011;41088;44.012;20.902;2022-11-20T22:02:53;3.58;;;2.13;;
55218;SDS011;41088;44.012;20.902;2022-11-20T22:05:20;4.13;;;2.75;;
55218;SDS011;41088;44.012;20.902;2022-11-20T22:07:45;5.32;;;3.25;;
55218;SDS011;41088;44.012;20.902;2022-11-20T22:10:11;6.63;;;2.72;;
55218;SDS011;41088;44.012;20.902;2022-11-20T22:12:38;5.55;;;2.60;;
55218;SDS011;41088;44.012;20.902;2022-11-20T22:15:04;3.85;;;2.33;;
55218;SDS011;41088;44.012;20.902;2022-11-20T22:17:30;3.95;;;1.98;;
55218;SDS011;41088;44.012;20.902;2022-11-20T22:20:15;2.70;;;1.65;;
55218;SDS011;41088;44.012;20.902;2022-11-20T22:22:41;2.67;;;1.88;;
55218;SDS011;41088;44.012;20.902;2022-11-20T22:25:07;3.17;;;1.90;;
55218;SDS011;41088;44.012;20.902;2022-11-20T22:27:33;2.70;;;1.13;;
55218;SDS011;41088;44.012;20.902;2022-11-20T22:29:59;2.88;;;1.10;;
55218;SDS011;41088;44.012;20.902;2022-11-20T22:32:26;5.05;;;1.17;;
55218;SDS011;41088;44.012;20.902;2022-11-20T22:34:52;1.23;;;0.90;;
55218;SDS011;41088;44.012;20.902;2022-11-20T22:37:17;1.65;;;1.00;;
55218;SDS011;41088;44.012;20.902;2022-11-20T22:39:43;4.95;;;1.08;;
55218;SDS011;41088;44.012;20.902;2022-11-20T22:42:09;1.20;;;0.82;;
55218;SDS011;41088;44.012;20.902;2022-11-20T22:44:35;1.90;;;0.90;;
55218;SDS011;41088;44.012;20.902;2022-11-20T22:47:00;1.20;;;0.75;;
55218;SDS011;41088;44.012;20.902;2022-11-20T22:49:26;1.10;;;0.90;;
55218;SDS011;41088;44.012;20.902;2022-11-20T22:51:52;2.03;;;0.98;;
55218;SDS011;41088;44.012;20.902;2022-11-20T22:54:18;1.40;;;0.90;;
55218;SDS011;41088;44.012;20.902;2022-11-20T22:56:43;1.52;;;0.82;;
55218;SDS011;41088;44.012;20.902;2022-11-20T22:59:10;1.65;;;1.02;;
55218;SDS011;41088;44.012;20.902;2022-11-20T23:01:36;2.90;;;1.00;;
55218;SDS011;41088;44.012;20.902;2022-11-20T23:04:05;2.40;;;1.35;;
55218;SDS011;41088;44.012;20.902;2022-11-20T23:06:33;2.08;;;1.13;;
55218;SDS011;41088;44.012;20.902;2022-11-20T23:08:59;2.22;;;1.15;;
55218;SDS011;41088;44.012;20.902;2022-11-20T23:11:27;2.83;;;1.33;;
55218;SDS011;41088;44.012;20.902;2022-11-20T23:13:54;3.58;;;1.40;;
55218;SDS011;41088;44.012;20.902;2022-11-20T23:16:22;2.42;;;1.20;;
55218;SDS011;41088;44.012;20.902;2022-11-20T23:18:56;2.80;;;1.20;;
55218;SDS011;41088;44.012;20.902;2022-11-20T23:21:23;2.40;;;1.15;;
55218;SDS011;41088;44.012;20.902;2022-11-20T23:23:50;1.42;;;1.05;;
55218;SDS011;41088;44.012;20.902;2022-11-20T23:26:17;1.60;;;1.10;;
55218;SDS011;41088;44.012;20.902;2022-11-20T23:28:45;1.55;;;1.00;;
55218;SDS011;41088;44.012;20.902;2022-11-20T23:31:11;3.67;;;1.23;;
55218;SDS011;41088;44.012;20.902;2022-11-20T23:33:39;2.13;;;1.10;;
55218;SDS011;41088;44.012;20.902;2022-11-20T23:36:06;3.58;;;1.00;;
55218;SDS011;41088;44.012;20.902;2022-11-20T23:38:33;1.35;;;1.00;;
55218;SDS011;41088;44.012;20.902;2022-11-20T23:40:59;1.67;;;1.00;;
55218;SDS011;41088;44.012;20.902;2022-11-20T23:43:25;1.02;;;0.82;;
55218;SDS011;41088;44.012;20.902;2022-11-20T23:45:52;1.48;;;1.10;;
55218;SDS011;41088;44.012;20.902;2022-11-20T23:48:20;2.05;;;1.10;;
55218;SDS011;41088;44.012;20.902;2022-11-20T23:50:47;2.15;;;1.30;;
55218;SDS011;41088;44.012;20.902;2022-11-20T23:53:14;1.92;;;1.20;;
55218;SDS011;41088;44.012;20.902;2022-11-20T23:55:59;1.88;;;1.45;;
55218;SDS011;41088;44.012;20.902;2022-11-20T23:58:31;2.47;;;1.58;;
